KGCK/GCK METAR and TAF weather

Enter ICAO airport designator
Station Type Date Time Source
KGCK METAR 2022/06/25 22:54 UTC NOAA

KGCK 252254Z 02021G31KT 10SM FEW120 24/13 A3015 RMK AO2 PK WND 36031/2245 SLP178 T02440133


Station Type Date Time Source
KGCK Decoded METAR 2022/06/25 22:54 UTC NOAA

GARDEN CITY REGIONAL AIRPORT, KS, United States (KGCK) 37-55N 100-43W 877M
Jun 25, 2022 - 06:54 PM EDT / 2022.06.25 2254 UTC
Wind: from the NNE (020 degrees) at 24 MPH (21 KT) gusting to 36 MPH (31 KT):0
Visibility: 10 mile(s):0
Sky conditions: mostly clear
Temperature: 75.9 F (24.4 C)
Dew Point: 55.9 F (13.3 C)
Relative Humidity: 49%
Pressure (altimeter): 30.15 in. Hg (1020 hPa)
ob: KGCK 252254Z 02021G31KT 10SM FEW120 24/13 A3015 RMK AO2 PK WND 36031/2245 SLP178 T02440133
cycle: 23

Station Type Date Time Source
KGCK TAF 2022/06/25 18:34 UTC NOAA

TAF
AMD KGCK 251732Z 2518/2618 02025G35KT P6SM VCSH BKN100
TEMPO 2518/2521 -SHRA
FM260000 02015G25KT P6SM BKN100
FM260600 03008KT P6SM VCSH OVC090
FM260900 04014KT P6SM -RA OVC070
FM261500 04015G25KT P6SM VCSH OVC070

Example: see airport list